Map

Track Data

SID SEASON NUMBER BASIN SUBBASIN NAME ISO_TIME NATURE LAT LON WMO_WIND WMO_PRES WMO_AGENCY TRACK_TYPE DIST2LAND LANDFALL IFLAG USA_AGENCY USA_ATCF_ID USA_LAT USA_LON USA_RECORD USA_STATUS USA_WIND USA_PRES USA_SSHS USA_R34_NE USA_R34_SE USA_R34_SW USA_R34_NW USA_R50_NE USA_R50_SE USA_R50_SW USA_R50_NW USA_R64_NE USA_R64_SE USA_R64_SW USA_R64_NW USA_POCI USA_ROCI USA_RMW USA_EYE TOKYO_LAT TOKYO_LON TOKYO_GRADE TOKYO_WIND TOKYO_PRES TOKYO_R50_DIR TOKYO_R50_LONG TOKYO_R50_SHORT TOKYO_R30_DIR TOKYO_R30_LONG TOKYO_R30_SHORT TOKYO_LAND CMA_LAT CMA_LON CMA_CAT CMA_WIND CMA_PRES HKO_LAT HKO_LON HKO_CAT HKO_WIND HKO_PRES NEWDELHI_LAT NEWDELHI_LON NEWDELHI_GRADE NEWDELHI_WIND NEWDELHI_PRES NEWDELHI_CI NEWDELHI_DP NEWDELHI_POCI REUNION_LAT REUNION_LON REUNION_TYPE REUNION_WIND REUNION_PRES REUNION_TNUM REUNION_CI REUNION_RMW REUNION_R34_NE REUNION_R34_SE REUNION_R34_SW REUNION_R34_NW REUNION_R50_NE REUNION_R50_SE REUNION_R50_SW REUNION_R50_NW REUNION_R64_NE REUNION_R64_SE REUNION_R64_SW REUNION_R64_NW BOM_LAT BOM_LON BOM_TYPE BOM_WIND BOM_PRES BOM_TNUM BOM_CI BOM_RMW BOM_R34_NE BOM_R34_SE BOM_R34_SW BOM_R34_NW BOM_R50_NE BOM_R50_SE BOM_R50_SW BOM_R50_NW BOM_R64_NE BOM_R64_SE BOM_R64_SW BOM_R64_NW BOM_ROCI BOM_POCI BOM_EYE BOM_POS_METHOD BOM_PRES_METHOD NADI_LAT NADI_LON NADI_CAT NADI_WIND NADI_PRES WELLINGTON_LAT WELLINGTON_LON WELLINGTON_WIND WELLINGTON_PRES DS824_LAT DS824_LON DS824_STAGE DS824_WIND DS824_PRES TD9636_LAT TD9636_LON TD9636_STAGE TD9636_WIND TD9636_PRES TD9635_LAT TD9635_LON TD9635_WIND TD9635_PRES TD9635_ROCI NEUMANN_LAT NEUMANN_LON NEUMANN_CLASS NEUMANN_WIND NEUMANN_PRES MLC_LAT MLC_LON MLC_CLASS MLC_WIND MLC_PRES USA_GUST BOM_GUST BOM_GUST_PER REUNION_GUST REUNION_GUST_PER USA_SEAHGT USA_SEARAD_NE USA_SEARAD_SE USA_SEARAD_SW USA_SEARAD_NW STORM_SPEED STORM_DIR
1885043S15069 1885 10 SI MM NOT_NAMED 1885-02-12 00:00:00 TS -15.0000 69.3000 main 1354 1330 _________O____ -1 -15.0000 69.3000 TC 5 235
1885043S15069 1885 10 SI MM NOT_NAMED 1885-02-12 03:00:00 TS -15.1375 69.0950 main 1330 1301 _________P____ -1 -15.1375 69.0950 TC 5 232
1885043S15069 1885 10 SI MM NOT_NAMED 1885-02-12 06:00:00 TS -15.3000 68.9000 main 1301 1271 _________O____ -1 -15.3000 68.9000 TC 5 224
1885043S15069 1885 10 SI MM NOT_NAMED 1885-02-12 09:00:00 TS -15.5000 68.7275 main 1271 1252 _________P____ -1 -15.5000 68.7275 TC 5 216
1885043S15069 1885 10 SI MM NOT_NAMED 1885-02-12 12:00:00 TS -15.7000 68.6000 main 1252 1237 _________O____ -1 -15.7000 68.6000 TC 4 207
1885043S15069 1885 10 SI MM NOT_NAMED 1885-02-12 15:00:00 TS -15.8575 68.5424 main 1233 1228 _________P____ -1 -15.8575 68.5424 TC 3 197
1885043S15069 1885 10 SI MM NOT_NAMED 1885-02-12 18:00:00 TS -16.0000 68.5000 main 1228 1213 _________O____ -1 -16.0000 68.5000 TC 3 204
1885043S15069 1885 10 SI MM NOT_NAMED 1885-02-12 21:00:00 TS -16.1500 68.4150 main 1213 1195 _________P____ -1 -16.1500 68.4150 TC 4 213
1885043S15069 1885 10 SI MM NOT_NAMED 1885-02-13 00:00:00 TS -16.3000 68.3000 main 1195 1180 _________O____ -1 -16.3000 68.3000 TC 4 220
1885043S15069 1885 10 SI MM NOT_NAMED 1885-02-13 03:00:00 TS -16.4425 68.1575 main 1180 1152 _________P____ -1 -16.4425 68.1575 TC 4 224
1885043S15069 1885 10 SI MM NOT_NAMED 1885-02-13 06:00:00 TS -16.6000 68.0000 main 1152 1134 _________O____ -1 -16.6000 68.0000 TC 5 220
1885043S15069 1885 10 SI MM NOT_NAMED 1885-02-13 09:00:00 TS -16.8000 67.8425 main 1124 1106 _________P____ -1 -16.8000 67.8425 TC 5 216
1885043S15069 1885 10 SI MM NOT_NAMED 1885-02-13 12:00:00 TS -17.0000 67.7000 main 1106 1092 _________O____ -1 -17.0000 67.7000 TC 4 214
1885043S15069 1885 10 SI MM NOT_NAMED 1885-02-13 15:00:00 TS -17.1575 67.5925 main 1088 1074 _________P____ -1 -17.1575 67.5925 TC 4 212
1885043S15069 1885 10 SI MM NOT_NAMED 1885-02-13 18:00:00 TS -17.3000 67.5000 main 1074 1060 _________O____ -1 -17.3000 67.5000 TC 3 213
1885043S15069 1885 10 SI MM NOT_NAMED 1885-02-13 21:00:00 TS -17.4500 67.4000 main 1060 1043 _________P____ -1 -17.4500 67.4000 TC 4 212
1885043S15069 1885 10 SI MM NOT_NAMED 1885-02-14 00:00:00 TS -17.6000 67.3000 main 1043 1030 _________O____ -1 -17.6000 67.3000 TC 4 213
1885043S15069 1885 10 SI MM NOT_NAMED 1885-02-14 03:00:00 TS -17.7425 67.2000 main 1030 1013 _________P____ -1 -17.7425 67.2000 TC 4 212
1885043S15069 1885 10 SI MM NOT_NAMED 1885-02-14 06:00:00 TS -17.9000 67.1000 main 1013 996 _________O____ -1 -17.9000 67.1000 TC 4 207
1885043S15069 1885 10 SI MM NOT_NAMED 1885-02-14 09:00:00 TS -18.1000 67.0075 main 996 980 _________P____ -1 -18.1000 67.0075 TC 4 205
1885043S15069 1885 10 SI MM NOT_NAMED 1885-02-14 12:00:00 TS -18.3000 66.9000 main 980 967 _________O____ -1 -18.3000 66.9000 TC 4 215
1885043S15069 1885 10 SI MM NOT_NAMED 1885-02-14 15:00:00 TS -18.4500 66.7500 main 954 941 _________P____ -1 -18.4500 66.7500 TC 4 223
1885043S15069 1885 10 SI MM NOT_NAMED 1885-02-14 18:00:00 TS -18.6000 66.6000 main 941 926 _________O____ -1 -18.6000 66.6000 TC 4 215
1885043S15069 1885 10 SI MM NOT_NAMED 1885-02-14 21:00:00 TS -18.7925 66.4925 main 926 912 _________P____ -1 -18.7925 66.4925 TC 4 205
1885043S15069 1885 10 SI MM NOT_NAMED 1885-02-15 00:00:00 TS -19.0000 66.4000 main 912 897 _________O____ -1 -19.0000 66.4000 TC 4 204
1885043S15069 1885 10 SI MM NOT_NAMED 1885-02-15 03:00:00 TS -19.2000 66.3000 main 897 884 _________P____ -1 -19.2000 66.3000 TC 4 205
1885043S15069 1885 10 SI MM NOT_NAMED 1885-02-15 06:00:00 TS -19.4000 66.2000 main 884 870 _________O____ -1 -19.4000 66.2000 TC 4 205
1885043S15069 1885 10 SI MM NOT_NAMED 1885-02-15 09:00:00 TS -19.6000 66.1000 main 870 858 _________P____ -1 -19.6000 66.1000 TC 4 205
1885043S15069 1885 10 SI MM NOT_NAMED 1885-02-15 12:00:00 TS -19.8000 66.0000 main 858 846 _________O____ -1 -19.8000 66.0000 TC 4 205
1885043S15069 1885 10 SI MM NOT_NAMED 1885-02-15 15:00:00 TS -20.0000 65.9000 main 846 834 _________P____ -1 -20.0000 65.9000 TC 4 205
1885043S15069 1885 10 SI MM NOT_NAMED 1885-02-15 18:00:00 TS -20.2000 65.8000 main 834 823 _________O____ -1 -20.2000 65.8000 TC 4 205
1885043S15069 1885 10 SI MM NOT_NAMED 1885-02-15 21:00:00 TS -20.4000 65.7000 main 823 813 _________P____ -1 -20.4000 65.7000 TC 4 205
1885043S15069 1885 10 SI MM NOT_NAMED 1885-02-16 00:00:00 TS -20.6000 65.6000 main 813 803 _________O____ -1 -20.6000 65.6000 TC 4 206
1885043S15069 1885 10 SI MM NOT_NAMED 1885-02-16 03:00:00 TS -20.7925 65.4925 main 803 793 _________P____ -1 -20.7925 65.4925 TC 4 205
1885043S15069 1885 10 SI MM NOT_NAMED 1885-02-16 06:00:00 TS -21.0000 65.4000 main 794 794 _________O____ -1 -21.0000 65.4000 TC 5 196
1885043S15069 1885 10 SI MM NOT_NAMED 1885-02-16 09:00:00 TS -21.2575 65.3499 main 787 787 _________P____ -1 -21.2575 65.3499 TC 5 191
1885043S15069 1885 10 SI MM NOT_NAMED 1885-02-16 12:00:00 TS -21.5000 65.3000 main 790 781 _________O____ -1 -21.5000 65.3000 TC 4 199
1885043S15069 1885 10 SI MM NOT_NAMED 1885-02-16 15:00:00 TS -21.6575 65.2000 main 783 773 _________P____ -1 -21.6575 65.2000 TC 4 211
1885043S15069 1885 10 SI MM NOT_NAMED 1885-02-16 18:00:00 TS -21.8000 65.1000 main 775 775 _________O____ -1 -21.8000 65.1000 TC 4 203
1885043S15069 1885 10 SI MM NOT_NAMED 1885-02-16 21:00:00 TS -21.9850 65.0499 main 770 770 _________P____ -1 -21.9850 65.0499 TC 4 192
1885043S15069 1885 10 SI MM NOT_NAMED 1885-02-17 00:00:00 TS -22.2000 65.0000 main 775 768 _________O____ -1 -22.2000 65.0000 TC 5 197
1885043S15069 1885 10 SI MM NOT_NAMED 1885-02-17 03:00:00 TS -22.4350 64.9000 main 771 768 _________P____ -1 -22.4350 64.9000 TC 5 200
1885043S15069 1885 10 SI MM NOT_NAMED 1885-02-17 06:00:00 TS -22.7000 64.8000 main 772 772 _________O____ -1 -22.7000 64.8000 TC 6 195
1885043S15069 1885 10 SI MM NOT_NAMED 1885-02-17 09:00:00 TS -22.9925 64.7424 main 774 774 _________P____ -1 -22.9925 64.7424 TC 6 188
1885043S15069 1885 10 SI MM NOT_NAMED 1885-02-17 12:00:00 TS -23.3000 64.7000 main 786 786 _________O____ -1 -23.3000 64.7000 TC 6 188
1885043S15069 1885 10 SI MM NOT_NAMED 1885-02-17 15:00:00 TS -23.6000 64.6500 main 790 790 _________P____ -1 -23.6000 64.6500 TC 6 188
1885043S15069 1885 10 SI MM NOT_NAMED 1885-02-17 18:00:00 TS -23.9000 64.6000 main 805 805 _________O____ -1 -23.9000 64.6000 TC 6 188
1885043S15069 1885 10 SI MM NOT_NAMED 1885-02-17 21:00:00 TS -24.2000 64.5500 main 820 812 _________P____ -1 -24.2000 64.5500 TC 6 188
1885043S15069 1885 10 SI MM NOT_NAMED 1885-02-18 00:00:00 TS -24.5000 64.5000 main 828 _________O____ -1 -24.5000 64.5000 TC 6 185

About IBTrACS Database

This database is a web-friendly format of International Best Track Archive for Climate Stewardship (IBTrACS), a global best track data archive curated by NOAA dating back to 1842.

Updated: 2021-10-19